| time (UTC) | temp C | wind direction | speed KPH | gust KPH | rain 1hr cm | rain 24hr cm | rain mn cm | humidity % | barometer mb |
| 20260510140511 | 22 | 123 | 19.3 | 32.2 | 0.00 | 0.03 | 0.03 | 53 | 1013.7 |
| 20260510135500 | 23 | 180 | 14.5 | 20.9 | 0.00 | 0.03 | 0.03 | 54 | 1013.8 |
| 20260510134457 | 23 | 150 | 6.4 | 22.5 | 0.00 | 0.03 | 0.03 | 54 | 1013.9 |
| 20260510133448 | 22 | 45 | 12.9 | 22.5 | 0.00 | 0.03 | 0.03 | 54 | 1014.1 |
| 20260510132504 | 22 | 21 | 11.3 | 27.4 | 0.00 | 0.03 | 0.03 | 55 | 1014.3 |
| 20260510131457 | 23 | 304 | 11.3 | 22.5 | 0.00 | 0.03 | 0.03 | 54 | 1014.5 |
| 20260510130432 | 22 | 152 | 8.0 | 17.7 | 0.00 | 0.03 | 0.03 | 57 | 1014.5 |
| 20260510125503 | 23 | 189 | 12.9 | 25.7 | 0.00 | 0.03 | 0.03 | 57 | 1014.4 |
| 20260510124522 | 24 | 171 | 11.3 | 17.7 | 0.00 | 0.03 | 0.03 | 52 | 1014.5 |
| 20260510123531 | 24 | 161 | 8.0 | 14.5 | 0.00 | 0.05 | 0.03 | 54 | 1014.5 |
| 20260510122502 | 25 | 137 | 3.2 | 11.3 | 0.00 | 0.05 | 0.03 | 51 | 1014.6 |
| 20260510121520 | 23 | 207 | 6.4 | 14.5 | 0.00 | 0.10 | 0.03 | 55 | 1014.6 |
| 20260510120450 | 23 | 180 | 6.4 | 9.7 | 0.00 | 0.15 | 0.03 | 56 | 1014.9 |
| 20260510115448 | 23 | 100 | 4.8 | 9.7 | 0.00 | 0.20 | 0.03 | 56 | 1015.0 |
| 20260510114439 | 23 | 206 | 4.8 | 11.3 | 0.00 | 0.23 | 0.03 | 55 | 1015.3 |
| 20260510113454 | 22 | 243 | 9.7 | 14.5 | 0.00 | 0.28 | 0.03 | 56 | 1015.4 |
| 20260510112427 | 22 | 84 | 6.4 | 11.3 | 0.00 | 0.33 | 0.03 | 61 | 1015.3 |
| 20260510111422 | 22 | 331 | 4.8 | 14.5 | 0.00 | 0.38 | 0.03 | 58 | 1015.7 |
| 20260510110513 | 22 | 217 | 4.8 | 12.9 | 0.00 | 0.43 | 0.03 | 56 | 1015.6 |
| 20260510105510 | 23 | 168 | 4.8 | 11.3 | 0.00 | 0.51 | 0.03 | 50 | 1015.5 |
| 20260510104501 | 22 | 248 | 4.8 | 9.7 | 0.00 | 0.56 | 0.03 | 52 | 1015.8 |
| 20260510103457 | 22 | 252 | 3.2 | 12.9 | 0.00 | 0.64 | 0.03 | 54 | 1016.0 |
| 20260510102449 | 22 | 248 | 1.6 | 3.2 | 0.00 | 0.66 | 0.03 | 55 | 1015.9 |
| 20260510101445 | 22 | 95 | 8.0 | 11.3 | 0.00 | 0.69 | 0.03 | 55 | 1016.0 |
| 20260510100437 | 21 | 248 | 8.0 | 12.9 | 0.00 | 0.71 | 0.03 | 58 | 1016.1 |
| 20260510095434 | 21 | 275 | 9.7 | 14.5 | 0.00 | 0.84 | 0.03 | 59 | 1016.2 |
| 20260510094425 | 21 | 270 | 1.6 | 3.2 | 0.00 | 0.89 | 0.03 | 61 | 1016.3 |
| 20260510093422 | 20 | 156 | 3.2 | 6.4 | 0.00 | 0.97 | 0.03 | 63 | 1016.2 |
| 20260510092513 | 20 | 261 | 6.4 | 9.7 | 0.00 | 1.04 | 0.03 | 64 | 1016.2 |
| 20260510091508 | 20 | 251 | 6.4 | 9.7 | 0.00 | 1.14 | 0.03 | 64 | 1016.2 |
| 20260510090501 | 20 | 219 | 3.2 | 6.4 | 0.00 | 1.30 | 0.03 | 64 | 1016.2 |
| 20260510085458 | 18 | 270 | 4.8 | 6.4 | 0.00 | 1.35 | 0.03 | 67 | 1016.2 |
| 20260510084447 | 18 | 253 | 4.8 | 9.7 | 0.00 | 1.42 | 0.03 | 71 | 1016.4 |
| 20260510083439 | 18 | 248 | 4.8 | 9.7 | 0.00 | 1.50 | 0.03 | 72 | 1016.4 |
| 20260510082436 | 17 | 174 | 1.6 | 6.4 | 0.00 | 1.63 | 0.03 | 73 | 1016.4 |
| 20260510081433 | 17 | 225 | 4.8 | 6.4 | 0.00 | 1.70 | 0.03 | 74 | 1016.6 |
| 20260510080458 | 17 | 211 | 8.0 | 11.3 | 0.00 | 1.75 | 0.03 | 74 | 1016.6 |
| 20260510075510 | 17 | 256 | 6.4 | 9.7 | 0.00 | 1.78 | 0.03 | 76 | 1016.6 |
| 20260510074446 | 17 | 232 | 4.8 | 6.4 | 0.00 | 1.78 | 0.03 | 76 | 1016.6 |
| 20260510073437 | 16 | 231 | 4.8 | 6.4 | 0.00 | 1.78 | 0.03 | 77 | 1016.6 |
| 20260510072434 | 16 | 248 | 6.4 | 11.3 | 0.00 | 1.78 | 0.03 | 78 | 1016.5 |
| 20260510071446 | 16 | 248 | 4.8 | 9.7 | 0.00 | 1.78 | 0.03 | 78 | 1016.4 |
| 20260510070421 | 16 | 248 | 4.8 | 9.7 | 0.00 | 1.78 | 0.03 | 79 | 1016.4 |
| 20260510065512 | 16 | 238 | 6.4 | 12.9 | 0.00 | 1.78 | 0.03 | 79 | 1016.3 |
| 20260510064509 | 16 | 264 | 3.2 | 6.4 | 0.00 | 1.78 | 0.03 | 81 | 1016.0 |
| 20260510063601 | 15 | 270 | 3.2 | 6.4 | 0.00 | 1.78 | 0.03 | 82 | 1016.0 |
| 20260510062457 | 15 | 237 | 4.8 | 9.7 | 0.00 | 1.78 | 0.03 | 82 | 1016.0 |
| 20260510061424 | 15 | 254 | 6.4 | 11.3 | 0.00 | 1.78 | 0.03 | 83 | 1016.0 |
| 20260510060419 | 15 | 248 | 3.2 | 6.4 | 0.00 | 1.78 | 0.03 | 84 | 1015.7 |
| 20260510055417 | 14 | 242 | 6.4 | 9.7 | 0.00 | 1.78 | 0.03 | 86 | 1015.7 |
| 20260510054553 | 14 | 248 | 4.8 | 6.4 | 0.00 | 1.78 | 0.03 | 88 | 1015.7 |
| 20260510053509 | 14 | 158 | 9.7 | 11.3 | 0.00 | 1.78 | 0.03 | 89 | 1015.5 |
| 20260510052507 | 13 | 248 | 6.4 | 11.3 | 0.00 | 1.78 | 0.03 | 92 | 1015.4 |
| 20260510051503 | 13 | 232 | 6.4 | 11.3 | 0.03 | 1.78 | 0.03 | 94 | 1015.4 |
| 20260510050521 | 13 | 232 | 8.0 | 11.3 | 0.03 | 1.78 | 0.03 | 95 | 1015.3 |
| 20260510045519 | 13 | 248 | 3.2 | 6.4 | 0.03 | 1.78 | 0.03 | 96 | 1015.4 |
| 20260510044514 | 13 | 248 | 3.2 | 3.2 | 0.03 | 1.78 | 0.03 | 96 | 1015.3 |
| 20260510043450 | 13 | 225 | 3.2 | 3.2 | 0.03 | 1.78 | 0.03 | 96 | 1015.3 |
| 20260510042447 | 13 | 0.0 | 0.0 | 0.03 | 1.78 | 0.03 | 96 | 1015.2 | |
| 20260510041443 | 13 | 218 | 3.2 | 6.4 | 0.00 | 1.75 | 0.00 | 96 | 1015.3 |
| 20260510040441 | 13 | 270 | 3.2 | 3.2 | 0.00 | 1.75 | 0.00 | 95 | 1015.3 |
| 20260510035437 | 13 | 270 | 3.2 | 6.4 | 0.00 | 1.75 | 0.00 | 95 | 1015.2 |
| 20260510034434 | 14 | 248 | 3.2 | 3.2 | 0.00 | 1.75 | 0.00 | 95 | 1015.3 |
| 20260510033432 | 14 | 0.0 | 0.0 | 0.00 | 1.75 | 0.00 | 95 | 1015.2 | |
| 20260510032429 | 14 | 0.0 | 0.0 | 0.00 | 1.75 | 0.00 | 95 | 1015.2 | |
| 20260510031424 | 14 | 225 | 3.2 | 6.4 | 0.00 | 1.75 | 0.00 | 95 | 1015.1 |
| 20260510030421 | 14 | 248 | 1.6 | 6.4 | 0.00 | 1.75 | 0.00 | 95 | 1015.1 |
| 20260510025418 | 14 | 248 | 1.6 | 3.2 | 0.00 | 1.75 | 0.00 | 95 | 1015.2 |
| 20260510024415 | 14 | 0.0 | 0.0 | 0.00 | 1.75 | 0.00 | 95 | 1015.3 | |
| 20260510023533 | 14 | 0.0 | 3.2 | 0.00 | 1.75 | 0.00 | 95 | 1015.2 | |
| 20260510022508 | 14 | 0.0 | 0.0 | 0.00 | 1.75 | 0.00 | 95 | 1015.4 | |
| 20260510021548 | 14 | 270 | 0.0 | 3.2 | 0.00 | 1.75 | 0.00 | 95 | 1015.4 |
| 20260510020502 | 15 | 0.0 | 0.0 | 0.00 | 1.75 | 0.00 | 95 | 1015.3 | |
| 20260510015519 | 15 | 270 | 1.6 | 3.2 | 0.00 | 1.75 | 0.00 | 95 | 1015.2 |
| 20260510014456 | 15 | 270 | 1.6 | 3.2 | 0.00 | 1.75 | 0.00 | 95 | 1015.1 |
| 20260510013512 | 15 | 270 | 1.6 | 3.2 | 0.00 | 1.75 | 0.00 | 95 | 1015.2 |
| 20260510012449 | 15 | 270 | 1.6 | 3.2 | 0.00 | 1.75 | 0.00 | 94 | 1015.2 |
| 20260510011506 | 15 | 248 | 3.2 | 3.2 | 0.00 | 1.75 | 0.00 | 94 | 1015.3 |
| 20260510010443 | 15 | 208 | 3.2 | 6.4 | 0.00 | 1.75 | 0.00 | 94 | 1015.5 |
| 20260510005501 | 15 | 253 | 4.8 | 6.4 | 0.00 | 1.75 | 0.00 | 94 | 1015.6 |
| 20260510004436 | 15 | 263 | 3.2 | 6.4 | 0.00 | 1.75 | 0.00 | 93 | 1015.8 |
| 20260510003433 | 15 | 248 | 3.2 | 3.2 | 0.00 | 1.75 | 0.00 | 93 | 1015.7 |
| 20260510002451 | 15 | 257 | 4.8 | 6.4 | 0.00 | 1.75 | 0.00 | 93 | 1015.9 |
| 20260510001426 | 15 | 255 | 3.2 | 6.4 | 0.00 | 1.75 | 0.00 | 93 | 1016.0 |
| 20260510000444 | 16 | 270 | 3.2 | 3.2 | 0.00 | 1.75 | 0.00 | 93 | 1015.9 |
| 20260509235420 | 16 | 270 | 4.8 | 6.4 | 0.00 | 1.75 | 0.00 | 92 | 1015.9 |
| 20260509234418 | 16 | 234 | 4.8 | 6.4 | 0.00 | 1.75 | 0.00 | 92 | 1016.0 |
| 20260509233513 | 16 | 270 | 4.8 | 6.4 | 0.00 | 1.75 | 0.00 | 91 | 1016.0 |
| 20260509232510 | 16 | 250 | 3.2 | 6.4 | 0.00 | 1.75 | 0.00 | 91 | 1016.2 |
| 20260509231507 | 16 | 270 | 4.8 | 6.4 | 0.00 | 1.75 | 0.00 | 91 | 1016.2 |
| 20260509230504 | 16 | 225 | 3.2 | 3.2 | 0.00 | 1.75 | 0.00 | 90 | 1016.2 |
| 20260509225501 | 16 | 203 | 3.2 | 3.2 | 0.00 | 1.75 | 0.00 | 90 | 1016.3 |
| 20260509224457 | 16 | 203 | 1.6 | 3.2 | 0.00 | 1.75 | 0.00 | 90 | 1016.2 |
| 20260509223454 | 16 | 0.0 | 0.0 | 0.00 | 1.75 | 0.00 | 90 | 1016.2 | |
| 20260509222452 | 16 | 225 | 1.6 | 3.2 | 0.00 | 1.75 | 0.00 | 90 | 1016.3 |
| 20260509221448 | 16 | 0.0 | 0.0 | 0.00 | 1.75 | 0.00 | 89 | 1016.3 | |
| 20260509220445 | 16 | 255 | 3.2 | 6.4 | 0.00 | 1.75 | 0.00 | 89 | 1016.7 |
| 20260509215441 | 16 | 270 | 3.2 | 6.4 | 0.00 | 1.75 | 1.75 | 88 | 1016.7 |
| 20260509214438 | 16 | 270 | 3.2 | 6.4 | 0.00 | 1.75 | 1.75 | 87 | 1016.8 |
| 20260509213435 | 16 | 158 | 1.6 | 3.2 | 0.00 | 1.75 | 1.75 | 87 | 1016.5 |
| 20260509212433 | 16 | 158 | 1.6 | 3.2 | 0.00 | 1.75 | 1.75 | 87 | 1016.3 |
| 20260509211449 | 16 | 0.0 | 0.0 | 0.00 | 1.75 | 1.75 | 86 | 1016.2 | |
| 20260509210425 | 16 | 135 | 3.2 | 3.2 | 0.00 | 1.75 | 1.75 | 86 | 1015.9 |
| 20260509205423 | 16 | 120 | 3.2 | 6.4 | 0.00 | 1.75 | 1.75 | 86 | 1016.1 |
| 20260509204420 | 16 | 131 | 3.2 | 6.4 | 0.00 | 1.75 | 1.75 | 86 | 1016.1 |
| 20260509203417 | 16 | 139 | 1.6 | 6.4 | 0.00 | 1.75 | 1.75 | 85 | 1016.1 |
| 20260509202514 | 16 | 0.0 | 0.0 | 0.00 | 1.75 | 1.75 | 85 | 1016.0 | |
| 20260509201509 | 16 | 135 | 1.6 | 3.2 | 0.00 | 1.75 | 1.75 | 85 | 1015.8 |
| 20260509200528 | 17 | 128 | 3.2 | 6.4 | 0.00 | 1.75 | 1.75 | 84 | 1015.7 |
| 20260509195503 | 17 | 141 | 1.6 | 6.4 | 0.00 | 1.75 | 1.75 | 84 | 1015.5 |
| 20260509194500 | 17 | 158 | 0.0 | 3.2 | 0.00 | 1.75 | 1.75 | 84 | 1015.3 |
| 20260509193456 | 17 | 158 | 3.2 | 3.2 | 0.00 | 1.75 | 1.75 | 83 | 1015.5 |
| 20260509192454 | 17 | 113 | 1.6 | 3.2 | 0.00 | 1.75 | 1.75 | 83 | 1015.3 |
| 20260509191450 | 17 | 0.0 | 0.0 | 0.00 | 1.75 | 1.75 | 83 | 1015.0 | |
| 20260509190446 | 17 | 113 | 1.6 | 6.4 | 0.00 | 1.75 | 1.75 | 83 | 1014.8 |
| 20260509185443 | 17 | 103 | 3.2 | 6.4 | 0.00 | 1.75 | 1.75 | 83 | 1014.7 |
| 20260509184440 | 17 | 124 | 3.2 | 6.4 | 0.00 | 1.75 | 1.75 | 83 | 1014.5 |
| 20260509183437 | 17 | 90 | 8.0 | 11.3 | 0.00 | 1.75 | 1.75 | 82 | 1014.2 |
| 20260509182433 | 17 | 68 | 8.0 | 14.5 | 0.00 | 1.75 | 1.75 | 82 | 1014.3 |
| 20260509181431 | 17 | 68 | 6.4 | 9.7 | 0.00 | 1.75 | 1.75 | 83 | 1014.3 |
| 20260509180427 | 17 | 96 | 9.7 | 12.9 | 0.00 | 1.75 | 1.75 | 82 | 1014.2 |
| 20260509175424 | 17 | 129 | 8.0 | 12.9 | 0.00 | 1.75 | 1.75 | 81 | 1014.1 |
| 20260509174421 | 18 | 83 | 8.0 | 14.5 | 0.00 | 1.75 | 1.75 | 79 | 1013.9 |
| 20260509173419 | 18 | 105 | 9.7 | 14.5 | 0.00 | 1.75 | 1.75 | 77 | 1013.7 |
| 20260509172555 | 18 | 97 | 9.7 | 17.7 | 0.00 | 1.75 | 1.75 | 77 | 1013.6 |
| 20260509171511 | 18 | 81 | 12.9 | 17.7 | 0.00 | 1.75 | 1.75 | 77 | 1013.5 |
| 20260509170510 | 18 | 83 | 12.9 | 17.7 | 0.00 | 1.75 | 1.75 | 78 | 1013.4 |
| 20260509165505 | 18 | 107 | 6.4 | 12.9 | 0.00 | 1.75 | 1.75 | 77 | 1013.5 |
| 20260509164502 | 18 | 94 | 9.7 | 14.5 | 0.00 | 1.75 | 1.75 | 77 | 1013.4 |
| 20260509163500 | 18 | 64 | 9.7 | 12.9 | 0.00 | 1.75 | 1.75 | 76 | 1013.4 |
| 20260509162457 | 18 | 131 | 9.7 | 14.5 | 0.00 | 1.75 | 1.75 | 78 | 1013.6 |
| 20260509161452 | 18 | 77 | 9.7 | 17.7 | 0.00 | 1.75 | 1.75 | 79 | 1013.5 |
| 20260509160449 | 18 | 65 | 8.0 | 12.9 | 0.00 | 1.75 | 1.75 | 77 | 1013.6 |
| 20260509155446 | 18 | 85 | 4.8 | 9.7 | 0.00 | 1.75 | 1.75 | 77 | 1013.5 |
| 20260509154442 | 18 | 104 | 8.0 | 12.9 | 0.00 | 1.75 | 1.75 | 77 | 1013.7 |
| 20260509153439 | 18 | 46 | 3.2 | 3.2 | 0.00 | 1.75 | 1.75 | 78 | 1013.6 |
| 20260509152436 | 18 | 41 | 4.8 | 6.4 | 0.00 | 1.75 | 1.75 | 78 | 1013.8 |
| 20260509151434 | 18 | 27 | 4.8 | 11.3 | 0.00 | 1.75 | 1.75 | 80 | 1013.7 |
| 20260509150429 | 17 | 37 | 6.4 | 11.3 | 0.00 | 1.75 | 1.75 | 81 | 1013.6 |
| 20260509145426 | 17 | 34 | 3.2 | 11.3 | 0.00 | 1.75 | 1.75 | 83 | 1013.8 |
| 20260509144423 | 17 | 128 | 3.2 | 9.7 | 0.00 | 1.75 | 1.75 | 87 | 1013.7 |
| 20260509143420 | 16 | 5 | 6.4 | 11.3 | 0.00 | 1.75 | 1.75 | 91 | 1013.8 |
| 20260509142418 | 16 | 81 | 1.6 | 6.4 | 0.00 | 1.75 | 1.75 | 94 | 1013.8 |
| 20260509141513 | 16 | 49 | 4.8 | 9.7 | 0.00 | 1.75 | 1.75 | 95 | 1014.0 |